createdAt,value
2023-05-14T00:00:59.130Z,101016.19
2023-05-14T00:03:29.489Z,101018.44
2023-05-14T00:05:57.806Z,101019.84
2023-05-14T00:08:25.778Z,101015.13
2023-05-14T00:10:53.618Z,101004.50
2023-05-14T00:13:21.549Z,101012.75
2023-05-14T00:15:50.755Z,101014.28
2023-05-14T00:18:18.675Z,101015.69
2023-05-14T00:20:46.486Z,101008.19
2023-05-14T00:23:14.262Z,101010.16
2023-05-14T00:25:42.031Z,101004.56
2023-05-14T00:28:09.803Z,101013.22
2023-05-14T00:30:37.596Z,101004.56
2023-05-14T00:33:08.326Z,101002.31
2023-05-14T00:35:38.950Z,101004.31
2023-05-14T00:38:07.085Z,101004.59
2023-05-14T00:40:35.589Z,100999.97
2023-05-14T00:43:03.754Z,101001.38
2023-05-14T00:45:31.826Z,101004.72
2023-05-14T00:47:59.752Z,101001.50
2023-05-14T00:50:29.095Z,100994.38
2023-05-14T00:52:56.913Z,100999.84
2023-05-14T00:55:24.814Z,100988.66
2023-05-14T00:57:54.718Z,100989.22
2023-05-14T01:00:22.809Z,100976.91
2023-05-14T01:02:52.502Z,100982.50
2023-05-14T01:05:20.702Z,100986.44
2023-05-14T01:07:59.059Z,100966.16
2023-05-14T01:10:32.743Z,100980.72
2023-05-14T01:13:05.806Z,100985.31
2023-05-14T01:15:37.192Z,100986.03
2023-05-14T01:18:08.293Z,100981.00
2023-05-14T01:20:36.415Z,100979.31
2023-05-14T01:23:05.943Z,100975.81
2023-05-14T01:25:33.925Z,100973.44
2023-05-14T01:28:09.409Z,100969.97
2023-05-14T01:30:41.264Z,100971.94
2023-05-14T01:33:12.445Z,100938.09
2023-05-14T01:35:40.827Z,100952.34
2023-05-14T01:38:14.482Z,100967.44
2023-05-14T01:40:43.059Z,100962.00
2023-05-14T01:43:11.732Z,100968.13
2023-05-14T01:45:39.596Z,100957.94
2023-05-14T01:48:07.595Z,100962.00
2023-05-14T01:50:35.909Z,100957.53
2023-05-14T01:53:04.243Z,100955.00
2023-05-14T01:55:33.896Z,100960.59
2023-05-14T01:58:01.737Z,100949.28
2023-05-14T02:00:30.509Z,100947.47
2023-05-14T02:02:59.810Z,100956.25
2023-05-14T02:05:27.663Z,100952.63
2023-05-14T02:07:55.433Z,100949.28
2023-05-14T02:10:23.457Z,100938.94
2023-05-14T02:12:52.904Z,100953.50
2023-05-14T02:15:20.631Z,100949.84
2023-05-14T02:17:48.383Z,100940.22
2023-05-14T02:20:16.344Z,100939.94
2023-05-14T02:22:46.071Z,100936.44
2023-05-14T02:25:13.943Z,100940.91
2023-05-14T02:27:41.916Z,100942.28
2023-05-14T02:30:12.598Z,100936.72
2023-05-14T02:32:40.650Z,100935.72
2023-05-14T02:35:09.339Z,100933.66
2023-05-14T02:37:38.221Z,100925.97
2023-05-14T02:40:08.036Z,100930.56
2023-05-14T02:42:36.030Z,100929.75
2023-05-14T02:45:03.976Z,100924.59
2023-05-14T02:47:33.251Z,100936.03
2023-05-14T02:50:01.846Z,100949.41
2023-05-14T02:52:29.637Z,100944.81
2023-05-14T02:55:02.544Z,100946.34
2023-05-14T02:57:38.574Z,100943.00
2023-05-14T03:00:09.150Z,100935.88
2023-05-14T03:02:39.456Z,100944.13
2023-05-14T03:05:09.290Z,100947.75
2023-05-14T03:07:37.238Z,100949.41
2023-05-14T03:10:05.822Z,100947.75
2023-05-14T03:12:33.585Z,100947.88
2023-05-14T03:15:01.377Z,100942.69
2023-05-14T03:17:29.205Z,100941.03
2023-05-14T03:19:58.895Z,100922.47
2023-05-14T03:22:28.234Z,100952.34
2023-05-14T03:24:56.068Z,100942.56
2023-05-14T03:27:23.819Z,100943.81
2023-05-14T03:29:51.664Z,100949.38
2023-05-14T03:32:19.752Z,100941.59
2023-05-14T03:34:47.591Z,100945.34
2023-05-14T03:37:16.701Z,100940.06
2023-05-14T03:39:44.435Z,100929.41
2023-05-14T03:42:12.286Z,100949.25
2023-05-14T03:44:40.694Z,100948.53
2023-05-14T03:47:09.069Z,100954.56
2023-05-14T03:49:36.855Z,100950.09
2023-05-14T03:52:05.190Z,100948.00
2023-05-14T03:54:34.410Z,100934.75
2023-05-14T03:57:02.826Z,100939.34
2023-05-14T03:59:30.671Z,100942.28
2023-05-14T04:01:58.449Z,100940.59
2023-05-14T04:04:27.477Z,100934.84
2023-05-14T04:06:55.342Z,100929.56
2023-05-14T04:09:23.464Z,100934.44
2023-05-14T04:11:53.596Z,100917.66
2023-05-14T04:14:22.053Z,100935.28
2023-05-14T04:16:49.892Z,100943.78
2023-05-14T04:19:18.373Z,100910.84
2023-05-14T04:21:47.425Z,100944.63
2023-05-14T04:24:15.292Z,100939.75
2023-05-14T04:26:43.089Z,100943.09
2023-05-14T04:29:12.190Z,100934.19
2023-05-14T04:31:39.990Z,100936.66
2023-05-14T04:34:07.763Z,100942.81
2023-05-14T04:36:35.647Z,100942.81
2023-05-14T04:39:04.341Z,100943.50
2023-05-14T04:41:32.078Z,100947.00
2023-05-14T04:44:01.683Z,100942.13
2023-05-14T04:46:31.058Z,100940.84
2023-05-14T04:48:58.875Z,100927.47
2023-05-14T04:51:26.906Z,100945.06
2023-05-14T04:53:54.604Z,100936.84
2023-05-14T04:56:22.545Z,100933.78
2023-05-14T04:58:50.530Z,100932.09
2023-05-14T05:01:18.424Z,100928.34
2023-05-14T05:03:48.783Z,100930.81
2023-05-14T05:06:16.646Z,100922.88
2023-05-14T05:08:44.581Z,100929.59
2023-05-14T05:11:12.418Z,100926.94
2023-05-14T05:13:40.125Z,100938.81
2023-05-14T05:16:08.290Z,100934.63
2023-05-14T05:18:36.063Z,100937.00
2023-05-14T05:21:05.179Z,100940.22
2023-05-14T05:23:32.868Z,100929.44
2023-05-14T05:26:00.876Z,100924.84
2023-05-14T05:28:28.643Z,100927.22
2023-05-14T05:30:56.894Z,100928.63
2023-05-14T05:33:24.796Z,100932.81
2023-05-14T05:35:52.589Z,100938.97
2023-05-14T05:38:21.844Z,100931.41
2023-05-14T05:40:49.693Z,100941.47
2023-05-14T05:43:17.457Z,100940.75
2023-05-14T05:45:45.886Z,100941.75
2023-05-14T05:48:13.682Z,100943.16
2023-05-14T05:50:44.662Z,100943.72
2023-05-14T05:53:12.487Z,100935.59
2023-05-14T05:55:41.733Z,100937.25
2023-05-14T05:58:10.629Z,100950.25
2023-05-14T06:00:38.357Z,100949.97
2023-05-14T06:03:06.262Z,100949.44
2023-05-14T06:05:34.239Z,100950.53
2023-05-14T06:08:02.807Z,100951.38
2023-05-14T06:10:30.703Z,100953.06
2023-05-14T06:13:02.595Z,100952.91
2023-05-14T06:15:32.783Z,100950.13
2023-05-14T06:18:02.967Z,100950.13
2023-05-14T06:20:31.037Z,100956.28
2023-05-14T06:23:01.367Z,100953.63
2023-05-14T06:25:29.176Z,100952.50
2023-05-14T06:27:56.978Z,100939.25
2023-05-14T06:30:26.351Z,100945.91
2023-05-14T06:32:54.851Z,100946.34
2023-05-14T06:35:25.032Z,100947.72
2023-05-14T06:37:52.852Z,100950.94
2023-05-14T06:40:21.065Z,100950.63
2023-05-14T06:42:49.018Z,100954.81
2023-05-14T06:45:16.813Z,100952.88
2023-05-14T06:47:46.355Z,100957.06
2023-05-14T06:50:14.089Z,100949.78
2023-05-14T06:52:43.607Z,100946.69
2023-05-14T06:55:14.748Z,100944.59
2023-05-14T06:57:42.625Z,100945.00
2023-05-14T07:00:11.445Z,100945.69
2023-05-14T07:02:39.706Z,100947.50
2023-05-14T07:05:10.891Z,100947.47
2023-05-14T07:07:41.265Z,100950.97
2023-05-14T07:10:09.455Z,100940.19
2023-05-14T07:12:37.332Z,100943.25
2023-05-14T07:15:05.981Z,100948.28
2023-05-14T07:17:33.840Z,100945.16
2023-05-14T07:20:01.661Z,100948.50
2023-05-14T07:22:30.996Z,100938.44
2023-05-14T07:24:58.847Z,100937.00
2023-05-14T07:27:26.641Z,100938.22
2023-05-14T07:29:54.417Z,100939.47
2023-05-14T07:32:22.159Z,100943.13
2023-05-14T07:34:50.112Z,100933.88
2023-05-14T07:37:17.849Z,100932.69
2023-05-14T07:39:47.054Z,100929.59
2023-05-14T07:42:24.651Z,100927.78
2023-05-14T07:45:00.042Z,100888.28
2023-05-14T07:47:27.968Z,100924.66
2023-05-14T07:49:56.602Z,100925.63
2023-05-14T07:52:24.737Z,100922.69
2023-05-14T07:54:54.006Z,100903.31
2023-05-14T07:57:22.038Z,100893.72
2023-05-14T07:59:49.984Z,100926.63
2023-05-14T08:02:17.989Z,100920.19
2023-05-14T08:04:45.952Z,100927.19
2023-05-14T08:07:13.643Z,100923.22
2023-05-14T08:09:41.506Z,100923.28
2023-05-14T08:12:10.810Z,100925.66
2023-05-14T08:14:38.663Z,100930.16
2023-05-14T08:17:06.617Z,100926.03
2023-05-14T08:19:34.877Z,100931.88
2023-05-14T08:22:02.742Z,100927.78
2023-05-14T08:24:30.606Z,100930.13
2023-05-14T08:26:58.412Z,100912.94
2023-05-14T08:29:27.675Z,100925.72
2023-05-14T08:31:55.587Z,100924.19
2023-05-14T08:34:23.467Z,100926.25
2023-05-14T08:36:51.112Z,100925.63
2023-05-14T08:39:18.818Z,100918.63
2023-05-14T08:41:46.761Z,100922.47
2023-05-14T08:44:16.192Z,100915.81
2023-05-14T08:46:45.545Z,100920.34
2023-05-14T08:49:23.532Z,100907.03
2023-05-14T08:51:51.808Z,100918.22
2023-05-14T08:54:22.480Z,100911.91
2023-05-14T08:56:52.495Z,100905.78
2023-05-14T08:59:20.486Z,100907.00
2023-05-14T09:01:52.736Z,100909.03
2023-05-14T09:04:23.160Z,100906.22
2023-05-14T09:06:52.337Z,100878.84
2023-05-14T09:09:22.382Z,100899.97
2023-05-14T09:11:51.074Z,100883.25
2023-05-14T09:14:19.190Z,100905.00
2023-05-14T09:16:49.630Z,100905.69
2023-05-14T09:19:19.116Z,100907.84
2023-05-14T09:21:47.847Z,100885.00
2023-05-14T09:24:21.316Z,100895.13
2023-05-14T09:26:52.673Z,100904.81
2023-05-14T09:29:20.891Z,100894.47
2023-05-14T09:31:51.950Z,100886.97
2023-05-14T09:34:25.837Z,100871.66
2023-05-14T09:36:57.412Z,100887.34
2023-05-14T09:39:26.009Z,100892.22
2023-05-14T09:41:54.779Z,100878.19
2023-05-14T09:44:25.203Z,100881.38
2023-05-14T09:46:57.151Z,100884.25
2023-05-14T09:49:25.043Z,100877.09
2023-05-14T09:51:52.865Z,100873.94
2023-05-14T09:54:20.763Z,100872.97
2023-05-14T09:56:48.696Z,100868.66
2023-05-14T09:59:16.468Z,100871.66
2023-05-14T10:01:44.841Z,100863.31
2023-05-14T10:04:15.322Z,100865.66
2023-05-14T10:06:48.660Z,100870.31
2023-05-14T10:09:23.213Z,100869.31
2023-05-14T10:11:54.642Z,100857.31
2023-05-14T10:14:34.517Z,100862.00
2023-05-14T10:17:03.842Z,100854.28
2023-05-14T10:19:35.200Z,100858.97
2023-05-14T10:22:06.083Z,100850.81
2023-05-14T10:24:34.669Z,100847.63
2023-05-14T10:27:02.761Z,100832.75
2023-05-14T10:29:35.012Z,100847.56
2023-05-14T10:32:06.870Z,100846.19
2023-05-14T10:34:41.166Z,100841.91
2023-05-14T10:37:10.999Z,100836.47
2023-05-14T10:39:43.482Z,100822.72
2023-05-14T10:42:13.059Z,100843.63
2023-05-14T10:44:48.485Z,100840.88
2023-05-14T10:47:17.780Z,100841.03
2023-05-14T10:49:49.176Z,100832.94
2023-05-14T10:52:20.928Z,100823.25
2023-05-14T10:54:53.748Z,100812.41
2023-05-14T10:57:23.799Z,100815.97
2023-05-14T10:59:55.010Z,100818.06
2023-05-14T11:02:25.337Z,100813.03
2023-05-14T11:04:59.731Z,100808.09
2023-05-14T11:07:32.864Z,100813.81
2023-05-14T11:10:03.926Z,100804.81
2023-05-14T11:12:32.699Z,100809.88
2023-05-14T11:15:02.401Z,100805.22
2023-05-14T11:17:31.710Z,100785.91
2023-05-14T11:20:01.204Z,100796.03
2023-05-14T11:22:31.009Z,100798.84
2023-05-14T11:24:58.817Z,100796.13
2023-05-14T11:27:26.971Z,100731.94
2023-05-14T11:29:55.814Z,100792.66
2023-05-14T11:32:26.723Z,100798.16
2023-05-14T11:34:56.182Z,100790.72
2023-05-14T11:37:25.469Z,100780.50
2023-05-14T11:39:58.692Z,100781.53
2023-05-14T11:42:26.721Z,100781.63
2023-05-14T11:44:55.225Z,100779.22
2023-05-14T11:47:25.681Z,100724.88
2023-05-14T11:49:54.093Z,100778.31
2023-05-14T11:52:22.122Z,100777.41
2023-05-14T11:54:51.478Z,100750.44
2023-05-14T11:57:21.924Z,100765.44
2023-05-14T11:59:55.930Z,100768.19
2023-05-14T12:02:24.011Z,100752.88
2023-05-14T12:04:53.049Z,100757.53
2023-05-14T12:07:21.018Z,100742.31
2023-05-14T12:09:50.084Z,100748.09
2023-05-14T12:12:21.541Z,100742.78
2023-05-14T12:14:51.038Z,100745.13
2023-05-14T12:17:20.942Z,100750.22
2023-05-14T12:19:50.988Z,100746.66
2023-05-14T12:22:20.405Z,100745.34
2023-05-14T12:24:54.751Z,100738.31
2023-05-14T12:27:26.245Z,100738.69
2023-05-14T12:30:12.837Z,100731.31
2023-05-14T12:32:48.842Z,100742.66
2023-05-14T12:35:16.879Z,100743.56
2023-05-14T12:37:44.658Z,100736.16
2023-05-14T12:40:13.287Z,100717.13
2023-05-14T12:42:42.601Z,100734.34
2023-05-14T12:45:11.171Z,100723.53
2023-05-14T12:47:39.049Z,100724.19
2023-05-14T12:50:08.138Z,100729.06
2023-05-14T12:52:39.796Z,100719.47
2023-05-14T12:55:09.244Z,100712.78
2023-05-14T12:57:38.853Z,100714.72
2023-05-14T13:00:13.957Z,100717.50
2023-05-14T13:02:43.641Z,100720.22
2023-05-14T13:05:12.145Z,100715.06
2023-05-14T13:07:40.160Z,100712.34
2023-05-14T13:10:08.827Z,100723.41
2023-05-14T13:12:36.689Z,100715.94
2023-05-14T13:15:04.765Z,100716.09
2023-05-14T13:17:34.034Z,100715.94
2023-05-14T13:20:01.996Z,100707.78
2023-05-14T13:22:30.809Z,100706.88
2023-05-14T13:24:58.899Z,100701.84
2023-05-14T13:27:26.757Z,100696.53
2023-05-14T13:29:54.472Z,100695.56
2023-05-14T13:32:22.292Z,100689.66
2023-05-14T13:34:51.479Z,100695.09
2023-05-14T13:37:19.195Z,100697.09
2023-05-14T13:39:47.719Z,100691.25
2023-05-14T13:42:16.459Z,100685.94
2023-05-14T13:44:44.213Z,100684.41
2023-05-14T13:47:11.905Z,100678.69
2023-05-14T13:49:40.666Z,100684.19
2023-05-14T13:52:09.767Z,100681.50
2023-05-14T13:54:37.695Z,100675.72
2023-05-14T13:57:06.358Z,100662.63
2023-05-14T13:59:34.229Z,100673.84
2023-05-14T14:02:02.135Z,100659.75
2023-05-14T14:04:30.194Z,100665.28
2023-05-14T14:06:58.558Z,100663.75
2023-05-14T14:09:27.868Z,100658.13
2023-05-14T14:11:55.688Z,100653.13
2023-05-14T14:14:23.504Z,100644.81
2023-05-14T14:16:51.412Z,100658.72
2023-05-14T14:19:19.220Z,100653.59
2023-05-14T14:21:47.326Z,100640.84
2023-05-14T14:24:15.051Z,100641.94
2023-05-14T14:26:44.146Z,100636.59
2023-05-14T14:29:11.938Z,100635.53
2023-05-14T14:31:39.779Z,100634.50
2023-05-14T14:34:07.521Z,100644.38
2023-05-14T14:36:35.465Z,100636.22
2023-05-14T14:39:03.218Z,100640.06
2023-05-14T14:41:31.135Z,100633.69
2023-05-14T14:44:02.803Z,65118.94
2023-05-14T14:46:30.668Z,65118.94
2023-05-14T14:48:58.388Z,65118.94
2023-05-14T14:51:26.209Z,65118.94
2023-05-14T14:53:54.166Z,65118.94
2023-05-14T14:56:22.109Z,65118.94
2023-05-14T14:58:49.821Z,65118.94
2023-05-14T15:01:18.904Z,65118.94
2023-05-14T15:03:48.248Z,65118.94
2023-05-14T15:06:16.007Z,65118.94
2023-05-14T15:08:43.731Z,65118.94
2023-05-14T15:11:14.866Z,65118.94
2023-05-14T15:13:43.066Z,65118.94
2023-05-14T15:16:11.203Z,65118.94
2023-05-14T15:18:40.424Z,65118.94
2023-05-14T15:21:08.190Z,65118.94
2023-05-14T15:23:36.037Z,65118.94
2023-05-14T15:26:05.393Z,65118.94
2023-05-14T15:28:33.283Z,65118.94
2023-05-14T15:31:02.413Z,65118.94
2023-05-14T15:33:30.182Z,65118.94
2023-05-14T15:35:59.295Z,65118.94
2023-05-14T15:38:27.190Z,65118.94
2023-05-14T15:40:54.935Z,65118.94
2023-05-14T15:43:22.717Z,65118.94
2023-05-14T15:45:50.540Z,65118.94
2023-05-14T15:48:18.394Z,65118.94
2023-05-14T15:50:48.354Z,65118.94
2023-05-14T15:53:18.723Z,65118.94
2023-05-14T15:55:48.636Z,65118.94
2023-05-14T15:58:16.331Z,65118.94
2023-05-14T16:00:44.087Z,65118.94
2023-05-14T16:03:12.396Z,65118.94
2023-05-14T16:05:40.523Z,65118.94
2023-05-14T16:08:08.512Z,65118.94
2023-05-14T16:10:37.612Z,65118.94
2023-05-14T16:13:05.595Z,65118.94
2023-05-14T16:15:33.344Z,65118.94
2023-05-14T16:18:01.291Z,65118.94
2023-05-14T16:20:29.119Z,65118.94
2023-05-14T16:22:56.793Z,65118.94
2023-05-14T16:25:24.618Z,65118.94
2023-05-14T16:27:53.745Z,65118.94
2023-05-14T16:30:21.827Z,65118.94
2023-05-14T16:32:50.195Z,65118.94
2023-05-14T16:35:18.078Z,65118.94
2023-05-14T16:37:46.011Z,65118.94
2023-05-14T16:40:16.203Z,65118.94
2023-05-14T16:42:47.785Z,65118.94
2023-05-14T16:45:20.161Z,65118.94
2023-05-14T16:47:47.904Z,65118.94
2023-05-14T16:50:15.897Z,65118.94
2023-05-14T16:52:43.835Z,65118.94
2023-05-14T16:55:11.591Z,65118.94
2023-05-14T16:57:39.352Z,65118.94
2023-05-14T17:00:09.529Z,65118.94
2023-05-14T17:02:39.035Z,65118.94
2023-05-14T17:05:08.124Z,65118.94
2023-05-14T17:07:36.009Z,65118.94
2023-05-14T17:10:06.456Z,65118.94
2023-05-14T17:12:36.924Z,65118.94
2023-05-14T17:15:11.015Z,65118.94
2023-05-14T17:17:40.125Z,65118.94
2023-05-14T17:20:11.169Z,65118.94
2023-05-14T17:22:42.056Z,65118.94
2023-05-14T17:25:10.754Z,65118.94
2023-05-14T17:27:38.648Z,65118.94
2023-05-14T17:30:07.561Z,65118.94
2023-05-14T17:32:35.454Z,65118.94
2023-05-14T17:35:05.268Z,65118.94
2023-05-14T17:37:33.123Z,65118.94
2023-05-14T17:40:00.771Z,65118.94
2023-05-14T17:42:28.644Z,65118.94
2023-05-14T17:44:56.345Z,65118.94
2023-05-14T17:47:24.134Z,65118.94
2023-05-14T17:49:51.921Z,65118.94
2023-05-14T17:52:21.418Z,65118.94
2023-05-14T17:54:49.221Z,65118.94
2023-05-14T17:57:17.144Z,65118.94
2023-05-14T17:59:45.029Z,65118.94
2023-05-14T18:02:12.779Z,65118.94
2023-05-14T18:04:40.570Z,65118.94
2023-05-14T18:07:08.438Z,65118.94
2023-05-14T18:09:41.683Z,65118.94
2023-05-14T18:12:10.138Z,65118.94
2023-05-14T18:14:37.999Z,65118.94
2023-05-14T18:17:06.481Z,65118.94
2023-05-14T18:19:34.825Z,65118.94
2023-05-14T18:22:02.567Z,65118.94
2023-05-14T18:24:30.258Z,65118.94
2023-05-14T18:27:00.062Z,65118.94
2023-05-14T18:29:30.192Z,65118.94
2023-05-14T18:31:58.148Z,65118.94
2023-05-14T18:34:25.829Z,65118.94
2023-05-14T18:36:53.770Z,65118.94
2023-05-14T18:39:21.546Z,65118.94
2023-05-14T18:41:49.592Z,65118.94
2023-05-14T18:44:18.822Z,65118.94
2023-05-14T18:46:46.859Z,65118.94
2023-05-14T18:49:14.709Z,65118.94
2023-05-14T18:51:42.591Z,65118.94
2023-05-14T18:54:10.366Z,65118.94
2023-05-14T18:56:39.973Z,65118.94
2023-05-14T18:59:07.880Z,65118.94
2023-05-14T19:01:37.029Z,65118.94
2023-05-14T19:04:06.194Z,65118.94
2023-05-14T19:06:34.150Z,65118.94
2023-05-14T19:09:01.911Z,65118.94
2023-05-14T19:11:29.664Z,65118.94
2023-05-14T19:13:57.739Z,65118.94
2023-05-14T19:16:25.710Z,65118.94
2023-05-14T19:18:55.161Z,65118.94
2023-05-14T19:21:22.930Z,65118.94
2023-05-14T19:23:50.714Z,65118.94
2023-05-14T19:26:18.521Z,65118.94
2023-05-14T19:28:46.208Z,65118.94
2023-05-14T19:31:13.973Z,65118.94
2023-05-14T19:33:41.987Z,65118.94
2023-05-14T19:36:11.193Z,65118.94
2023-05-14T19:38:39.680Z,65118.94
2023-05-14T19:41:07.347Z,65118.94
2023-05-14T19:43:35.116Z,65118.94
2023-05-14T19:46:04.370Z,65118.94
2023-05-14T19:48:32.268Z,65118.94
2023-05-14T19:51:00.222Z,65118.94
2023-05-14T19:53:30.594Z,65118.94
2023-05-14T19:55:58.924Z,65118.94
2023-05-14T19:58:27.283Z,65118.94
2023-05-14T20:00:57.552Z,65118.94
2023-05-14T20:03:26.597Z,65118.94
2023-05-14T20:05:54.696Z,65118.94
2023-05-14T20:08:23.100Z,65118.94
2023-05-14T20:10:52.227Z,65118.94
2023-05-14T20:14:07.163Z,100641.16
2023-05-14T20:16:35.059Z,100646.50
2023-05-14T20:19:02.931Z,100650.50
2023-05-14T20:21:31.542Z,100644.34
2023-05-14T20:23:59.289Z,100648.81
2023-05-14T20:26:27.268Z,100647.50
2023-05-14T20:28:55.681Z,100647.16
2023-05-14T20:31:24.826Z,100642.31
2023-05-14T20:33:52.554Z,100636.69
2023-05-14T20:36:20.521Z,100644.06
2023-05-14T20:38:48.424Z,100642.88
2023-05-14T20:41:16.183Z,100645.34
2023-05-14T20:43:43.966Z,100649.56
2023-05-14T20:46:11.776Z,100654.25
2023-05-14T20:48:41.818Z,100652.09
2023-05-14T20:51:09.514Z,100649.75
2023-05-14T20:53:39.089Z,100652.63
2023-05-14T20:56:10.028Z,100653.66
2023-05-14T20:58:37.756Z,100646.97
2023-05-14T21:01:07.963Z,100649.66
2023-05-14T21:03:38.180Z,100643.50
2023-05-14T21:06:23.089Z,100622.69
2023-05-14T21:08:50.816Z,100632.53
2023-05-14T21:11:18.608Z,100630.53
2023-05-14T21:13:46.321Z,100632.53
2023-05-14T21:16:16.888Z,100628.75
2023-05-14T21:18:44.713Z,100610.41
2023-05-14T21:21:12.447Z,100625.41
2023-05-14T21:23:41.593Z,100627.44
2023-05-14T21:26:09.416Z,100616.59
2023-05-14T21:28:37.195Z,100613.25
2023-05-14T21:31:05.043Z,100614.28
2023-05-14T21:33:33.011Z,100619.25
2023-05-14T21:36:00.821Z,100622.94
2023-05-14T21:38:28.872Z,100621.47
2023-05-14T21:40:57.939Z,100618.97
2023-05-14T21:43:25.794Z,100627.47
2023-05-14T21:45:53.557Z,100614.78
2023-05-14T21:48:29.323Z,100601.16
2023-05-14T21:50:57.398Z,100611.97
2023-05-14T21:53:25.485Z,100607.31
2023-05-14T21:55:57.946Z,100606.81
2023-05-14T21:58:28.115Z,100617.81
2023-05-14T22:00:55.979Z,100599.81
2023-05-14T22:03:23.806Z,100609.78
2023-05-14T22:05:51.773Z,100610.13
2023-05-14T22:08:19.622Z,100617.66
2023-05-14T22:10:47.895Z,100608.19
2023-05-14T22:13:15.811Z,100609.50
2023-05-14T22:15:45.074Z,100615.16
2023-05-14T22:18:15.467Z,100604.81
2023-05-14T22:20:44.060Z,100608.84
2023-05-14T22:23:11.775Z,100607.50
2023-05-14T22:25:39.580Z,100601.53
2023-05-14T22:28:07.337Z,100604.84
2023-05-14T22:30:35.139Z,100601.34
2023-05-14T22:33:04.219Z,100605.22
2023-05-14T22:35:32.007Z,100603.38
2023-05-14T22:37:59.770Z,100601.53
2023-05-14T22:40:27.609Z,100593.88
2023-05-14T22:42:55.340Z,100587.88
2023-05-14T22:45:23.643Z,100588.88
2023-05-14T22:47:51.691Z,100582.72
2023-05-14T22:50:21.145Z,100578.56
2023-05-14T22:52:48.994Z,100570.25
2023-05-14T22:55:16.829Z,100577.25
2023-05-14T22:57:44.665Z,100567.75
2023-05-14T23:00:13.959Z,100563.56
2023-05-14T23:02:41.738Z,100565.41
2023-05-14T23:05:10.315Z,100562.56
2023-05-14T23:07:39.455Z,100558.25
2023-05-14T23:10:08.082Z,100553.59
2023-05-14T23:12:36.016Z,100560.75
2023-05-14T23:15:07.758Z,100559.59
2023-05-14T23:17:40.413Z,100554.28
2023-05-14T23:20:12.639Z,100551.44
2023-05-14T23:22:41.871Z,100553.63
2023-05-14T23:25:12.803Z,100554.78
2023-05-14T23:27:41.027Z,100549.63
2023-05-14T23:30:10.106Z,100548.94
2023-05-14T23:32:40.979Z,100550.63
2023-05-14T23:35:09.503Z,100552.09
2023-05-14T23:37:41.782Z,100550.63
2023-05-14T23:40:12.933Z,100550.44
2023-05-14T23:42:45.010Z,100556.47
2023-05-14T23:45:15.229Z,100539.97
2023-05-14T23:47:43.274Z,100544.47
2023-05-14T23:50:11.264Z,100536.97
2023-05-14T23:52:39.225Z,100536.78
2023-05-14T23:55:07.859Z,100533.31
2023-05-14T23:57:36.949Z,100531.63
